Welcome to Northern Hawkes Bay. New Zealand.
PWS Header
      nz Flag



Hit Counter


W3C Valid W3C Valid logo


    Wairoa

Select any of the Stations below to visit their websites.










Historic Data from Weather Underground
Select the location of interest below. Wairoa is the default. Please have patience, this Data is slow to load in.
Northern Hawkes Bay Historical Data
Daily Summary for January 7, 2017 Units:  Metric    English   Both
« Previous Day
Next Day »
Daily Weekly Monthly Yearly Custom
  High: Low: Average:
Temperature: 21.2 °C 10.9 °C 16.9 °C
Dew Point: 13.3 °C 6.3 °C 10.3 °C
Humidity: 87% 44% 66%
Wind Speed: 21.9km/h 0.0km/h 9.4km/h
Wind Gust: 29.4km/h - -
Wind- - SW
Pressure: 1016.8 hPa 1007.0 hPa -
Precipitation: 0.0 mm    
Historical Graphs
 
 
Tabular Data for January 7, 2017
Time Temperature Dew Point Pressure Wind Wind Speed Wind Gust Humidity Rainfall Rate (Hourly) solar
00:04 15.2 °C 6.7 °C 1010.7 hPa NW 5.0 km/h 9.7 km/h 57% 0.0 mm 0 W/m2
00:09 15.2 °C 6.7 °C 1010.7 hPa NW 3.5 km/h 8.7 km/h 57% 0.0 mm 0 W/m2
00:14 15.2 °C 6.7 °C 1010.7 hPa NW 5.0 km/h 7.2 km/h 57% 0.0 mm 0 W/m2
00:19 15.2 °C 6.5 °C 1010.7 hPa NW 3.5 km/h 9.7 km/h 56% 0.0 mm 0 W/m2
00:24 15.2 °C 6.7 °C 1010.7 hPa NW 7.2 km/h 9.7 km/h 57% 0.0 mm 0 W/m2
00:29 15.2 °C 6.5 °C 1010.7 hPa WNW 6.1 km/h 14.8 km/h 56% 0.0 mm 0 W/m2
00:34 15.4 °C 6.4 °C 1010.7 hPa WNW 5.0 km/h 14.8 km/h 55% 0.0 mm 0 W/m2
00:39 15.3 °C 6.3 °C 1010.7 hPa WNW 6.1 km/h 12.2 km/h 55% 0.0 mm 0 W/m2
00:44 15.3 °C 6.3 °C 1010.4 hPa WNW 12.2 km/h 14.8 km/h 55% 0.0 mm 0 W/m2
00:49 15.3 °C 6.6 °C 1010.4 hPa NW 8.7 km/h 14.8 km/h 56% 0.0 mm 0 W/m2
00:54 15.4 °C 6.4 °C 1010.4 hPa NNW 7.2 km/h 14.8 km/h 55% 0.0 mm 0 W/m2
00:59 15.3 °C 6.3 °C 1010.4 hPa NNW 3.5 km/h 14.8 km/h 55% 0.0 mm 0 W/m2
01:04 15.2 °C 6.5 °C 1010.7 hPa NNW 3.5 km/h 11.1 km/h 56% 0.0 mm 0 W/m2
01:09 15.1 °C 6.4 °C 1010.7 hPa NNW 3.5 km/h 11.1 km/h 56% 0.0 mm 0 W/m2
01:14 15.0 °C 6.6 °C 1010.4 hPa North 3.5 km/h 7.2 km/h 57% 0.0 mm 0 W/m2
01:19 14.7 °C 6.5 °C 1010.4 hPa North 5.0 km/h 9.7 km/h 58% 0.0 mm 0 W/m2
01:24 14.5 °C 6.6 °C 1010.4 hPa North 2.6 km/h 9.7 km/h 59% 0.0 mm 0 W/m2
01:29 14.5 °C 6.6 °C 1010.4 hPa North 6.1 km/h 8.7 km/h 59% 0.0 mm 0 W/m2
01:34 14.4 °C 6.5 °C 1010.4 hPa NNW 5.0 km/h 11.1 km/h 59% 0.0 mm 0 W/m2
01:39 14.2 °C 6.6 °C 1010.4 hPa NW 7.2 km/h 11.1 km/h 60% 0.0 mm 0 W/m2
01:45 14.2 °C 6.6 °C 1010.4 hPa NW 6.1 km/h 11.1 km/h 60% 0.0 mm 0 W/m2
01:50 14.1 °C 6.7 °C 1010.4 hPa NW 3.5 km/h 9.7 km/h 61% 0.0 mm 0 W/m2
01:55 13.9 °C 7.0 °C 1010.4 hPa NW 7.2 km/h 12.2 km/h 63% 0.0 mm 0 W/m2
02:00 13.9 °C 7.0 °C 1010.4 hPa NW 9.7 km/h 17.2 km/h 63% 0.0 mm 0 W/m2
02:05 14.3 °C 6.7 °C 1010.0 hPa NW 9.7 km/h 17.2 km/h 60% 0.0 mm 0 W/m2
02:10 14.5 °C 6.6 °C 1010.4 hPa NW 8.7 km/h 15.8 km/h 59% 0.0 mm 0 W/m2
02:15 14.8 °C 6.6 °C 1010.0 hPa WNW 8.7 km/h 17.2 km/h 58% 0.0 mm 0 W/m2
02:20 14.9 °C 6.7 °C 1009.7 hPa NW 11.1 km/h 19.5 km/h 58% 0.0 mm 0 W/m2
02:26 14.8 °C 6.6 °C 1010.0 hPa WNW 8.7 km/h 19.5 km/h 58% 0.0 mm 0 W/m2
02:31 14.6 °C 6.4 °C 1010.0 hPa WNW 8.7 km/h 17.2 km/h 58% 0.0 mm 0 W/m2
02:36 14.4 °C 6.5 °C 1010.0 hPa NW 3.5 km/h 15.8 km/h 59% 0.0 mm 0 W/m2
02:41 14.2 °C 6.6 °C 1010.0 hPa NW 2.6 km/h 11.1 km/h 60% 0.0 mm 0 W/m2
02:46 13.9 °C 6.7 °C 1010.0 hPa North 1.1 km/h 7.2 km/h 62% 0.0 mm 0 W/m2
02:52 13.7 °C 6.8 °C 1010.0 hPa North 3.5 km/h 7.2 km/h 63% 0.0 mm 0 W/m2
02:57 13.5 °C 6.8 °C 1010.0 hPa North 2.6 km/h 7.2 km/h 64% 0.0 mm 0 W/m2
03:02 13.5 °C 7.1 °C 1010.0 hPa North 2.6 km/h 6.1 km/h 65% 0.0 mm 0 W/m2
03:07 13.3 °C 6.9 °C 1010.0 hPa NNW 3.5 km/h 7.2 km/h 65% 0.0 mm 0 W/m2
03:12 13.3 °C 6.9 °C 1010.0 hPa NW 5.0 km/h 8.7 km/h 65% 0.0 mm 0 W/m2
03:17 13.5 °C 7.1 °C 1010.0 hPa NW 3.5 km/h 8.7 km/h 65% 0.0 mm 0 W/m2
03:22 13.4 °C 6.9 °C 1010.0 hPa NW 2.6 km/h 8.7 km/h 65% 0.0 mm 0 W/m2
03:27 13.4 °C 6.9 °C 1010.0 hPa WNW 1.1 km/h 6.1 km/h 65% 0.0 mm 0 W/m2
03:32 13.3 °C 6.9 °C 1010.4 hPa NW 2.6 km/h 6.1 km/h 65% 0.0 mm 0 W/m2
03:37 13.2 °C 6.8 °C 1010.0 hPa NNW 1.1 km/h 5.0 km/h 65% 0.0 mm 0 W/m2
03:42 13.0 °C 6.6 °C 1010.0 hPa Calm   5.0 km/h 65% 0.0 mm 0 W/m2
03:47 12.7 °C 6.5 °C 1010.4 hPa North 1.1 km/h 3.5 km/h 66% 0.0 mm 0 W/m2
03:52 12.7 °C 6.7 °C 1010.0 hPa North 1.1 km/h 3.5 km/h 67% 0.0 mm 0 W/m2
03:58 12.6 °C 6.8 °C 1010.4 hPa North 1.1 km/h 3.5 km/h 68% 0.0 mm 0 W/m2
04:03 12.4 °C 6.7 °C 1010.0 hPa Calm   2.6 km/h 68% 0.0 mm 0 W/m2
04:08 12.2 °C 6.7 °C 1010.0 hPa North 2.6 km/h 5.0 km/h 69% 0.0 mm 0 W/m2
04:13 12.3 °C 7.0 °C 1010.4 hPa North 5.0 km/h 8.7 km/h 70% 0.0 mm 0 W/m2
04:19 12.7 °C 7.2 °C 1010.0 hPa NNW 5.0 km/h 8.7 km/h 69% 0.0 mm 0 W/m2
04:24 12.8 °C 7.1 °C 1010.0 hPa NNW 5.0 km/h 9.7 km/h 68% 0.0 mm 0 W/m2
04:29 12.7 °C 7.2 °C 1010.0 hPa NNW 5.0 km/h 9.7 km/h 69% 0.0 mm 0 W/m2
04:34 12.5 °C 7.2 °C 1010.0 hPa North 1.1 km/h 7.2 km/h 70% 0.0 mm 0 W/m2
04:39 12.2 °C 6.9 °C 1009.7 hPa NNE 2.6 km/h 7.2 km/h 70% 0.0 mm 0 W/m2
04:44 12.0 °C 6.9 °C 1010.0 hPa North 3.5 km/h 5.0 km/h 71% 0.0 mm 0 W/m2
04:49 11.9 °C 7.0 °C 1010.0 hPa North 3.5 km/h 6.1 km/h 72% 0.0 mm 0 W/m2
04:54 11.8 °C 7.1 °C 1010.0 hPa NNW 6.1 km/h 9.7 km/h 73% 0.0 mm 0 W/m2
04:59 11.8 °C 7.1 °C 1009.7 hPa NNW 8.7 km/h 13.4 km/h 73% 0.0 mm 0 W/m2
05:04 11.8 °C 7.1 °C 1009.7 hPa NNW 7.2 km/h 13.4 km/h 73% 0.0 mm 0 W/m2
05:09 11.8 °C 7.1 °C 1010.0 hPa NNW 7.2 km/h 13.4 km/h 73% 0.0 mm 0 W/m2
05:14 11.7 °C 7.0 °C 1009.7 hPa NNW 7.2 km/h 13.4 km/h 73% 0.0 mm 0 W/m2
05:19 11.9 °C 7.2 °C 1009.7 hPa NNW 9.7 km/h 14.8 km/h 73% 0.0 mm 0 W/m2
05:24 11.9 °C 7.2 °C 1009.7 hPa NW 9.7 km/h 17.2 km/h 73% 0.0 mm 0 W/m2
05:29 11.8 °C 7.1 °C 1009.7 hPa NNW 8.7 km/h 17.2 km/h 73% 0.0 mm 0 W/m2
05:34 11.7 °C 7.0 °C 1009.7 hPa NNW 6.1 km/h 15.8 km/h 73% 0.0 mm 0 W/m2
05:39 11.4 °C 6.9 °C 1010.0 hPa NNW 5.0 km/h 13.4 km/h 74% 0.0 mm 0 W/m2
05:44 11.3 °C 6.8 °C 1010.0 hPa NNW 3.5 km/h 12.2 km/h 74% 0.0 mm 0 W/m2
05:49 11.2 °C 6.9 °C 1010.0 hPa North 5.0 km/h 8.7 km/h 75% 0.0 mm 1 W/m2
05:54 11.0 °C 6.7 °C 1010.0 hPa North 2.6 km/h 6.1 km/h 75% 0.0 mm 3 W/m2
05:59 10.9 °C 7.1 °C 1010.0 hPa NNE 2.6 km/h 7.2 km/h 77% 0.0 mm 5 W/m2
06:04 10.9 °C 7.1 °C 1010.0 hPa NE 2.6 km/h 7.2 km/h 77% 0.0 mm 8 W/m2
06:09 11.0 °C 7.1 °C 1010.0 hPa NE 2.6 km/h 6.1 km/h 77% 0.0 mm 11 W/m2
06:14 11.2 °C 7.1 °C 1010.0 hPa NNE 2.6 km/h 6.1 km/h 76% 0.0 mm 14 W/m2
06:19 11.4 °C 7.3 °C 1010.0 hPa NNE 6.1 km/h 7.2 km/h 76% 0.0 mm 17 W/m2
06:24 11.7 °C 7.4 °C 1009.7 hPa North 5.0 km/h 9.7 km/h 75% 0.0 mm 20 W/m2
06:29 12.0 °C 7.3 °C 1010.0 hPa NNW 5.0 km/h 9.7 km/h 73% 0.0 mm 28 W/m2
06:34 12.4 °C 7.5 °C 1010.0 hPa North 5.0 km/h 8.7 km/h 72% 0.0 mm 28 W/m2
06:39 12.9 °C 7.8 °C 1010.0 hPa North 3.5 km/h 7.2 km/h 71% 0.0 mm 58 W/m2
06:44 13.4 °C 7.6 °C 1009.7 hPa NNW 3.5 km/h 9.7 km/h 68% 0.0 mm 67 W/m2
06:49 13.8 °C 7.8 °C 1010.0 hPa NNW 2.6 km/h 9.7 km/h 67% 0.0 mm 77 W/m2
06:54 14.4 °C 7.9 °C 1010.0 hPa NNW 3.5 km/h 11.1 km/h 65% 0.0 mm 88 W/m2
06:59 14.6 °C 7.9 °C 1010.0 hPa NNW 5.0 km/h 12.2 km/h 64% 0.0 mm 98 W/m2
07:04 15.0 °C 8.0 °C 1010.0 hPa North 2.6 km/h 12.2 km/h 63% 0.0 mm 110 W/m2
07:09 15.6 °C 8.3 °C 1010.4 hPa NNE 3.5 km/h 7.2 km/h 62% 0.0 mm 122 W/m2
07:14 15.9 °C 7.9 °C 1010.0 hPa Calm   7.2 km/h 59% 0.0 mm 134 W/m2
07:19 16.0 °C 7.7 °C 1010.4 hPa NNE 3.5 km/h 7.2 km/h 58% 0.0 mm 148 W/m2
07:24 15.8 °C 7.8 °C 1010.0 hPa NNW 5.0 km/h 9.7 km/h 59% 0.0 mm 161 W/m2
07:29 16.0 °C 7.7 °C 1010.0 hPa NNW 5.0 km/h 9.7 km/h 58% 0.0 mm 172 W/m2
07:34 16.2 °C 7.9 °C 1010.4 hPa NNW 3.5 km/h 8.7 km/h 58% 0.0 mm 185 W/m2
07:39 16.7 °C 8.2 °C 1010.4 hPa NNW 5.0 km/h 8.7 km/h 57% 0.0 mm 198 W/m2
07:44 16.9 °C 8.1 °C 1010.4 hPa North 3.5 km/h 8.7 km/h 56% 0.0 mm 212 W/m2
07:49 17.1 °C 8.0 °C 1010.4 hPa North 3.5 km/h 8.7 km/h 55% 0.0 mm 225 W/m2
07:54 17.3 °C 7.9 °C 1010.0 hPa NNW 6.1 km/h 9.7 km/h 54% 0.0 mm 239 W/m2
07:59 17.0 °C 7.9 °C 1010.4 hPa NW 3.5 km/h 9.7 km/h 55% 0.0 mm 252 W/m2
08:04 17.3 °C 8.2 °C 1010.4 hPa NW 3.5 km/h 11.1 km/h 55% 0.0 mm 265 W/m2
08:09 17.3 °C 8.2 °C 1010.7 hPa NW 3.5 km/h 11.1 km/h 55% 0.0 mm 280 W/m2
08:14 17.8 °C 8.4 °C 1010.7 hPa NNW 5.0 km/h 9.7 km/h 54% 0.0 mm 294 W/m2
08:19 17.7 °C 8.0 °C 1010.4 hPa NW 7.2 km/h 12.2 km/h 53% 0.0 mm 307 W/m2
08:25 17.6 °C 7.9 °C 1010.4 hPa NW 8.7 km/h 12.2 km/h 53% 0.0 mm 327 W/m2
08:30 17.8 °C 8.7 °C 1010.4 hPa NW 2.6 km/h 12.2 km/h 55% 0.0 mm 343 W/m2
08:35 18.7 °C 9.5 °C 1010.7 hPa NNW 3.5 km/h 11.1 km/h 55% 0.0 mm 362 W/m2
08:40 19.1 °C 8.4 °C 1010.7 hPa Calm   8.7 km/h 50% 0.0 mm 377 W/m2
08:45 20.0 °C 8.7 °C 1010.7 hPa Calm   8.7 km/h 48% 0.0 mm 401 W/m2
08:50 20.2 °C 8.6 °C 1010.7 hPa NNW 6.1 km/h 12.2 km/h 47% 0.0 mm 418 W/m2
08:55 19.7 °C 8.7 °C 1010.7 hPa NW 3.5 km/h 12.2 km/h 49% 0.0 mm 435 W/m2
09:00 20.0 °C 8.9 °C 1010.7 hPa NW 1.1 km/h 12.2 km/h 49% 0.0 mm 455 W/m2
09:05 20.7 °C 8.7 °C 1010.7 hPa North 3.5 km/h 7.2 km/h 46% 0.0 mm 476 W/m2
09:10 21.0 °C 8.6 °C 1010.7 hPa ENE 2.6 km/h 8.7 km/h 45% 0.0 mm 506 W/m2
09:15 21.1 °C 8.4 °C 1010.7 hPa SSE 1.1 km/h 8.7 km/h 44% 0.0 mm 514 W/m2
09:20 21.2 °C 8.8 °C 1010.7 hPa SSW 7.2 km/h 14.8 km/h 45% 0.0 mm 535 W/m2
09:25 20.9 °C 9.5 °C 1010.7 hPa SW 15.8 km/h 18.3 km/h 48% 0.0 mm 551 W/m2
09:30 20.3 °C 8.3 °C 1010.7 hPa SW 15.8 km/h 21.9 km/h 46% 0.0 mm 573 W/m2
09:35 20.3 °C 8.3 °C 1010.7 hPa SW 15.8 km/h 23.3 km/h 46% 0.0 mm 585 W/m2
09:40 20.2 °C 8.2 °C 1010.7 hPa WSW 12.2 km/h 23.3 km/h 46% 0.0 mm 607 W/m2
09:45 20.1 °C 8.1 °C 1011.1 hPa SW 15.8 km/h 24.5 km/h 46% 0.0 mm 636 W/m2
09:50 20.1 °C 7.5 °C 1010.7 hPa WSW 15.8 km/h 24.5 km/h 44% 0.0 mm 655 W/m2
09:55 20.1 °C 7.5 °C 1010.7 hPa West 17.2 km/h 24.5 km/h 44% 0.0 mm 680 W/m2
10:00 20.1 °C 7.8 °C 1011.1 hPa WSW 15.8 km/h 24.5 km/h 45% 0.0 mm 697 W/m2
10:05 20.3 °C 9.2 °C 1011.1 hPa SW 12.2 km/h 24.5 km/h 49% 0.0 mm 707 W/m2
10:10 19.9 °C 11.7 °C 1010.7 hPa SSW 14.8 km/h 23.3 km/h 59% 0.0 mm 721 W/m2
10:15 19.5 °C 11.6 °C 1011.1 hPa South 14.8 km/h 20.9 km/h 60% 0.0 mm 733 W/m2
10:20 19.3 °C 11.6 °C 1011.1 hPa SSW 11.1 km/h 19.5 km/h 61% 0.0 mm 746 W/m2
10:25 19.5 °C 11.3 °C 1011.1 hPa South 12.2 km/h 19.5 km/h 59% 0.0 mm 758 W/m2
10:30 19.3 °C 10.8 °C 1010.7 hPa South 9.7 km/h 21.9 km/h 58% 0.0 mm 769 W/m2
10:35 19.5 °C 11.3 °C 1010.7 hPa South 9.7 km/h 21.9 km/h 59% 0.0 mm 784 W/m2
10:40 20.1 °C 11.6 °C 1010.7 hPa South 13.4 km/h 18.3 km/h 58% 0.0 mm 803 W/m2
10:45 20.1 °C 11.3 °C 1010.7 hPa South 12.2 km/h 18.3 km/h 57% 0.0 mm 814 W/m2
10:49 20.1 °C 11.6 °C 1010.7 hPa SSW 8.7 km/h 19.5 km/h 58% 0.0 mm 822 W/m2
10:54 19.8 °C 11.8 °C 1011.1 hPa SSW 13.4 km/h 19.5 km/h 60% 0.0 mm 830 W/m2
10:59 19.3 °C 10.8 °C 1010.7 hPa South 12.2 km/h 18.3 km/h 58% 0.0 mm 835 W/m2
11:04 19.3 °C 11.1 °C 1010.7 hPa South 12.2 km/h 18.3 km/h 59% 0.0 mm 844 W/m2
11:10 19.3 °C 11.1 °C 1010.7 hPa South 12.2 km/h 20.9 km/h 59% 0.0 mm 856 W/m2
11:15 19.6 °C 11.4 °C 1010.7 hPa South 12.2 km/h 20.9 km/h 59% 0.0 mm 864 W/m2
11:20 20.0 °C 11.8 °C 1010.7 hPa South 8.7 km/h 18.3 km/h 59% 0.0 mm 875 W/m2
11:25 20.1 °C 11.8 °C 1010.7 hPa South 11.1 km/h 17.2 km/h 59% 0.0 mm 884 W/m2
11:30 19.9 °C 11.9 °C 1010.7 hPa South 12.2 km/h 20.9 km/h 60% 0.0 mm 888 W/m2
11:35 20.1 °C 12.1 °C 1010.7 hPa South 7.2 km/h 20.9 km/h 60% 0.0 mm 893 W/m2
11:40 19.9 °C 11.4 °C 1010.7 hPa South 7.2 km/h 19.5 km/h 58% 0.0 mm 900 W/m2
11:45 19.9 °C 12.2 °C 1010.7 hPa South 12.2 km/h 19.5 km/h 61% 0.0 mm 903 W/m2
11:50 20.0 °C 11.8 °C 1010.7 hPa South 14.8 km/h 20.9 km/h 59% 0.0 mm 906 W/m2
12:09 19.9 °C 11.7 °C 1010.7 hPa SSE 13.4 km/h 24.5 km/h 59% 0.0 mm 915 W/m2
12:14 19.2 °C 12.7 °C 1010.7 hPa South 18.3 km/h 24.5 km/h 66% 0.0 mm 910 W/m2
12:19 18.6 °C 12.8 °C 1010.7 hPa South 15.8 km/h 27.0 km/h 69% 0.0 mm 905 W/m2
12:24 18.7 °C 12.7 °C 1010.7 hPa South 12.2 km/h 27.0 km/h 68% 0.0 mm 906 W/m2
12:29 19.1 °C 13.1 °C 1010.7 hPa South 13.4 km/h 27.0 km/h 68% 0.0 mm 910 W/m2
12:34 19.2 °C 12.7 °C 1010.7 hPa South 14.8 km/h 23.3 km/h 66% 0.0 mm 912 W/m2
12:39 18.8 °C 12.6 °C 1010.4 hPa South 13.4 km/h 24.5 km/h 67% 0.0 mm 911 W/m2
12:44 18.5 °C 12.3 °C 1010.7 hPa South 14.8 km/h 24.5 km/h 67% 0.0 mm 907 W/m2
12:49 18.7 °C 12.7 °C 1010.7 hPa South 14.8 km/h 24.5 km/h 68% 0.0 mm 909 W/m2
12:54 18.7 °C 12.7 °C 1010.7 hPa South 14.8 km/h 24.5 km/h 68% 0.0 mm 909 W/m2
12:59 18.7 °C 12.7 °C 1010.7 hPa South 14.8 km/h 24.5 km/h 68% 0.0 mm 909 W/m2
13:04 18.7 °C 12.7 °C 1010.7 hPa South 14.8 km/h 24.5 km/h 68% 0.0 mm 909 W/m2
13:09 18.7 °C 12.7 °C 1010.7 hPa South 14.8 km/h 24.5 km/h 68% 0.0 mm 909 W/m2
13:14 18.7 °C 12.7 °C 1010.7 hPa South 14.8 km/h 24.5 km/h 68% 0.0 mm 909 W/m2
13:19 18.7 °C 12.7 °C 1010.7 hPa South 14.8 km/h 24.5 km/h 68% 0.0 mm 909 W/m2
13:24 18.7 °C 12.7 °C 1010.7 hPa South 14.8 km/h 24.5 km/h 68% 0.0 mm 909 W/m2
13:29 18.7 °C 12.7 °C 1010.7 hPa South 14.8 km/h 24.5 km/h 68% 0.0 mm 909 W/m2
13:34 18.7 °C 12.7 °C 1010.7 hPa South 14.8 km/h 24.5 km/h 68% 0.0 mm 909 W/m2
13:39 18.7 °C 12.7 °C 1010.7 hPa South 14.8 km/h 24.5 km/h 68% 0.0 mm 909 W/m2
13:44 18.7 °C 12.7 °C 1010.7 hPa South 14.8 km/h 24.5 km/h 68% 0.0 mm 909 W/m2
13:49 18.7 °C 12.7 °C 1010.7 hPa South 14.8 km/h 24.5 km/h 68% 0.0 mm 909 W/m2
13:54 18.7 °C 12.7 °C 1010.7 hPa South 14.8 km/h 24.5 km/h 68% 0.0 mm 909 W/m2
13:59 18.7 °C 12.7 °C 1010.7 hPa South 14.8 km/h 24.5 km/h 68% 0.0 mm 909 W/m2
14:04 18.7 °C 12.7 °C 1010.7 hPa South 14.8 km/h 24.5 km/h 68% 0.0 mm 909 W/m2
14:09 18.7 °C 12.7 °C 1010.7 hPa South 14.8 km/h 24.5 km/h 68% 0.0 mm 909 W/m2
14:14 18.7 °C 12.7 °C 1010.7 hPa South 14.8 km/h 24.5 km/h 68% 0.0 mm 909 W/m2
14:19 18.7 °C 12.7 °C 1010.7 hPa South 14.8 km/h 24.5 km/h 68% 0.0 mm 909 W/m2
14:24 18.7 °C 12.7 °C 1010.7 hPa South 14.8 km/h 24.5 km/h 68% 0.0 mm 909 W/m2
14:30 18.7 °C 12.7 °C 1010.7 hPa South 14.8 km/h 24.5 km/h 68% 0.0 mm 909 W/m2
14:35 18.7 °C 12.7 °C 1010.7 hPa South 14.8 km/h 24.5 km/h 68% 0.0 mm 909 W/m2
14:40 18.7 °C 12.7 °C 1010.7 hPa South 14.8 km/h 24.5 km/h 68% 0.0 mm 909 W/m2
14:45 18.7 °C 12.7 °C 1010.7 hPa South 14.8 km/h 24.5 km/h 68% 0.0 mm 909 W/m2
14:50 18.7 °C 12.7 °C 1010.7 hPa South 14.8 km/h 24.5 km/h 68% 0.0 mm 909 W/m2
14:55 18.7 °C 12.7 °C 1010.7 hPa South 14.8 km/h 24.5 km/h 68% 0.0 mm 909 W/m2
15:00 18.7 °C 12.7 °C 1010.7 hPa South 14.8 km/h 24.5 km/h 68% 0.0 mm 909 W/m2
15:05 18.7 °C 12.7 °C 1010.7 hPa South 14.8 km/h 24.5 km/h 68% 0.0 mm 909 W/m2
15:10 18.7 °C 12.7 °C 1010.7 hPa South 14.8 km/h 24.5 km/h 68% 0.0 mm 909 W/m2
15:15 18.7 °C 12.7 °C 1010.7 hPa South 14.8 km/h 24.5 km/h 68% 0.0 mm 909 W/m2
15:20 18.7 °C 12.7 °C 1010.7 hPa South 14.8 km/h 24.5 km/h 68% 0.0 mm 909 W/m2
15:25 18.7 °C 12.7 °C 1010.7 hPa South 14.8 km/h 24.5 km/h 68% 0.0 mm 909 W/m2
15:30 18.7 °C 12.7 °C 1010.7 hPa South 14.8 km/h 24.5 km/h 68% 0.0 mm 909 W/m2
15:35 18.7 °C 12.7 °C 1010.7 hPa South 14.8 km/h 24.5 km/h 68% 0.0 mm 909 W/m2
15:40 18.7 °C 12.7 °C 1010.7 hPa South 14.8 km/h 24.5 km/h 68% 0.0 mm 909 W/m2
15:45 18.7 °C 12.7 °C 1010.7 hPa South 14.8 km/h 24.5 km/h 68% 0.0 mm 909 W/m2
15:50 18.7 °C 12.7 °C 1010.7 hPa South 14.8 km/h 24.5 km/h 68% 0.0 mm 909 W/m2
15:55 18.7 °C 12.7 °C 1010.7 hPa South 14.8 km/h 24.5 km/h 68% 0.0 mm 909 W/m2
16:00 18.7 °C 12.7 °C 1010.7 hPa South 14.8 km/h 24.5 km/h 68% 0.0 mm 909 W/m2
16:05 18.7 °C 12.7 °C 1010.7 hPa South 14.8 km/h 24.5 km/h 68% 0.0 mm 909 W/m2
16:10 18.7 °C 12.7 °C 1010.7 hPa South 14.8 km/h 24.5 km/h 68% 0.0 mm 909 W/m2
16:15 18.7 °C 12.7 °C 1010.7 hPa South 14.8 km/h 24.5 km/h 68% 0.0 mm 909 W/m2
16:20 18.7 °C 12.7 °C 1010.7 hPa South 14.8 km/h 24.5 km/h 68% 0.0 mm 909 W/m2
16:25 18.7 °C 12.7 °C 1010.7 hPa South 14.8 km/h 24.5 km/h 68% 0.0 mm 909 W/m2
16:30 18.7 °C 12.7 °C 1010.7 hPa South 14.8 km/h 24.5 km/h 68% 0.0 mm 909 W/m2
16:35 18.7 °C 12.7 °C 1010.7 hPa South 14.8 km/h 24.5 km/h 68% 0.0 mm 909 W/m2
16:40 18.7 °C 12.7 °C 1010.7 hPa South 14.8 km/h 24.5 km/h 68% 0.0 mm 909 W/m2
16:46 18.7 °C 12.7 °C 1010.7 hPa South 14.8 km/h 24.5 km/h 68% 0.0 mm 909 W/m2
16:51 18.7 °C 12.7 °C 1010.7 hPa South 14.8 km/h 24.5 km/h 68% 0.0 mm 909 W/m2
16:56 18.7 °C 12.7 °C 1010.7 hPa South 14.8 km/h 24.5 km/h 68% 0.0 mm 909 W/m2
17:01 18.7 °C 12.7 °C 1010.7 hPa South 14.8 km/h 24.5 km/h 68% 0.0 mm 909 W/m2
17:06 18.7 °C 12.7 °C 1010.7 hPa South 14.8 km/h 24.5 km/h 68% 0.0 mm 909 W/m2
17:11 18.7 °C 12.7 °C 1010.7 hPa South 14.8 km/h 24.5 km/h 68% 0.0 mm 909 W/m2
17:16 18.7 °C 12.7 °C 1010.7 hPa South 14.8 km/h 24.5 km/h 68% 0.0 mm 909 W/m2
17:21 18.7 °C 12.7 °C 1010.7 hPa South 14.8 km/h 24.5 km/h 68% 0.0 mm 909 W/m2
17:26 18.7 °C 12.7 °C 1010.7 hPa South 14.8 km/h 24.5 km/h 68% 0.0 mm 909 W/m2
17:31 18.7 °C 12.7 °C 1010.7 hPa South 14.8 km/h 24.5 km/h 68% 0.0 mm 909 W/m2
17:36 18.7 °C 12.7 °C 1010.7 hPa South 14.8 km/h 24.5 km/h 68% 0.0 mm 909 W/m2
17:41 18.7 °C 12.7 °C 1010.7 hPa South 14.8 km/h 24.5 km/h 68% 0.0 mm 909 W/m2
17:46 18.7 °C 12.7 °C 1010.7 hPa South 14.8 km/h 24.5 km/h 68% 0.0 mm 909 W/m2
17:51 18.7 °C 12.7 °C 1010.7 hPa South 14.8 km/h 24.5 km/h 68% 0.0 mm 909 W/m2
17:56 18.7 °C 12.7 °C 1010.7 hPa South 14.8 km/h 24.5 km/h 68% 0.0 mm 909 W/m2
18:01 18.7 °C 12.7 °C 1010.7 hPa South 14.8 km/h 24.5 km/h 68% 0.0 mm 909 W/m2
18:06 18.7 °C 12.7 °C 1010.7 hPa South 14.8 km/h 24.5 km/h 68% 0.0 mm 909 W/m2
18:11 18.7 °C 12.7 °C 1010.7 hPa South 14.8 km/h 24.5 km/h 68% 0.0 mm 909 W/m2
18:16 18.7 °C 12.7 °C 1010.7 hPa South 14.8 km/h 24.5 km/h 68% 0.0 mm 909 W/m2
18:21 18.7 °C 12.7 °C 1010.7 hPa South 14.8 km/h 24.5 km/h 68% 0.0 mm 909 W/m2
18:26 18.7 °C 12.7 °C 1010.7 hPa South 14.8 km/h 24.5 km/h 68% 0.0 mm 909 W/m2
18:31 18.7 °C 12.7 °C 1010.7 hPa South 14.8 km/h 24.5 km/h 68% 0.0 mm 909 W/m2
18:36 18.7 °C 12.7 °C 1010.7 hPa South 14.8 km/h 24.5 km/h 68% 0.0 mm 909 W/m2
18:41 18.7 °C 12.7 °C 1010.7 hPa South 14.8 km/h 24.5 km/h 68% 0.0 mm 909 W/m2
18:46 18.7 °C 12.7 °C 1010.7 hPa South 14.8 km/h 24.5 km/h 68% 0.0 mm 909 W/m2
18:51 18.7 °C 12.7 °C 1010.7 hPa South 14.8 km/h 24.5 km/h 68% 0.0 mm 909 W/m2
18:56 18.7 °C 12.7 °C 1010.7 hPa South 14.8 km/h 24.5 km/h 68% 0.0 mm 909 W/m2
19:01 18.7 °C 12.7 °C 1010.7 hPa South 14.8 km/h 24.5 km/h 68% 0.0 mm 909 W/m2
19:06 18.7 °C 12.7 °C 1010.7 hPa South 14.8 km/h 24.5 km/h 68% 0.0 mm 909 W/m2
19:11 18.7 °C 12.7 °C 1010.7 hPa South 14.8 km/h 24.5 km/h 68% 0.0 mm 909 W/m2
19:17 18.7 °C 12.7 °C 1010.7 hPa South 14.8 km/h 24.5 km/h 68% 0.0 mm 909 W/m2
19:22 18.7 °C 12.7 °C 1010.7 hPa South 14.8 km/h 24.5 km/h 68% 0.0 mm 909 W/m2
19:27 18.7 °C 12.7 °C 1010.7 hPa South 14.8 km/h 24.5 km/h 68% 0.0 mm 909 W/m2
19:32 18.7 °C 12.7 °C 1010.7 hPa South 14.8 km/h 24.5 km/h 68% 0.0 mm 909 W/m2
19:37 18.7 °C 12.7 °C 1010.7 hPa South 14.8 km/h 24.5 km/h 68% 0.0 mm 909 W/m2
19:42 18.7 °C 12.7 °C 1010.7 hPa South 14.8 km/h 24.5 km/h 68% 0.0 mm 909 W/m2
19:47 18.7 °C 12.7 °C 1010.7 hPa South 14.8 km/h 24.5 km/h 68% 0.0 mm 909 W/m2
19:52 18.7 °C 12.7 °C 1010.7 hPa South 14.8 km/h 24.5 km/h 68% 0.0 mm 909 W/m2
19:57 18.7 °C 12.7 °C 1010.7 hPa South 14.8 km/h 24.5 km/h 68% 0.0 mm 909 W/m2
20:14 18.7 °C 12.7 °C 1010.7 hPa South 14.8 km/h 24.5 km/h 68% 0.0 mm 909 W/m2
20:19 18.7 °C 12.7 °C 1010.7 hPa South 14.8 km/h 24.5 km/h 68% 0.0 mm 909 W/m2
20:24 18.7 °C 12.7 °C 1010.7 hPa South 14.8 km/h 24.5 km/h 68% 0.0 mm 909 W/m2
20:29 18.7 °C 12.7 °C 1010.7 hPa South 14.8 km/h 24.5 km/h 68% 0.0 mm 909 W/m2
20:34 18.7 °C 12.7 °C 1010.7 hPa South 14.8 km/h 24.5 km/h 68% 0.0 mm 909 W/m2
20:39 18.7 °C 12.7 °C 1010.7 hPa South 14.8 km/h 24.5 km/h 68% 0.0 mm 909 W/m2
20:44 18.7 °C 12.7 °C 1010.7 hPa South 14.8 km/h 24.5 km/h 68% 0.0 mm 909 W/m2
20:49 18.7 °C 12.7 °C 1010.7 hPa South 14.8 km/h 24.5 km/h 68% 0.0 mm 909 W/m2
20:54 18.7 °C 12.7 °C 1010.7 hPa South 14.8 km/h 24.5 km/h 68% 0.0 mm 909 W/m2
20:59 18.7 °C 12.7 °C 1010.7 hPa South 14.8 km/h 24.5 km/h 68% 0.0 mm 909 W/m2
21:04 18.7 °C 12.7 °C 1010.7 hPa South 14.8 km/h 24.5 km/h 68% 0.0 mm 909 W/m2
21:09 18.7 °C 12.7 °C 1010.7 hPa South 14.8 km/h 24.5 km/h 68% 0.0 mm 909 W/m2
21:14 18.7 °C 12.7 °C 1010.7 hPa South 14.8 km/h 24.5 km/h 68% 0.0 mm 909 W/m2
21:19 18.7 °C 12.7 °C 1010.7 hPa South 14.8 km/h 24.5 km/h 68% 0.0 mm 909 W/m2
21:24 18.7 °C 12.7 °C 1010.7 hPa South 14.8 km/h 24.5 km/h 68% 0.0 mm 909 W/m2
21:29 18.7 °C 12.7 °C 1010.7 hPa South 14.8 km/h 24.5 km/h 68% 0.0 mm 909 W/m2
21:34 18.7 °C 12.7 °C 1010.7 hPa South 14.8 km/h 24.5 km/h 68% 0.0 mm 909 W/m2
21:39 18.7 °C 12.7 °C 1010.7 hPa South 14.8 km/h 24.5 km/h 68% 0.0 mm 909 W/m2
21:44 18.7 °C 12.7 °C 1010.7 hPa South 14.8 km/h 24.5 km/h 68% 0.0 mm 909 W/m2
21:51 12.3 °C 9.8 °C 1016.8 hPa SSW 21.9 km/h 29.4 km/h 85% 0.0 mm 195 W/m2
21:57 16.3 °C 12.1 °C 1007.0 hPa SW 2.6 km/h 29.4 km/h 76% 0.0 mm 0 W/m2
22:02 16.1 °C 11.9 °C 1007.3 hPa SW 1.1 km/h 5.0 km/h 76% 0.0 mm 0 W/m2
22:07 15.8 °C 12.0 °C 1007.3 hPa SW 1.1 km/h 5.0 km/h 78% 0.0 mm 0 W/m2
22:12 15.7 °C 11.9 °C 1007.3 hPa Calm   3.5 km/h 78% 0.0 mm 0 W/m2
22:17 15.7 °C 11.9 °C 1007.3 hPa Calm     78% 0.0 mm 0 W/m2
22:22 15.6 °C 11.8 °C 1007.3 hPa Calm     78% 0.0 mm 0 W/m2
22:27 15.6 °C 12.0 °C 1007.3 hPa NNW 3.5 km/h 7.2 km/h 79% 0.0 mm 0 W/m2
22:32 15.6 °C 12.0 °C 1007.3 hPa Calm   7.2 km/h 79% 0.0 mm 0 W/m2
22:37 15.5 °C 12.1 °C 1007.3 hPa NNW 1.1 km/h 5.0 km/h 80% 0.0 mm 0 W/m2
22:42 15.5 °C 12.3 °C 1007.3 hPa NNW 3.5 km/h 6.1 km/h 81% 0.0 mm 0 W/m2
22:47 15.5 °C 12.6 °C 1007.3 hPa NW 2.6 km/h 6.1 km/h 83% 0.0 mm 0 W/m2
22:52 15.5 °C 12.6 °C 1007.3 hPa NW 1.1 km/h 6.1 km/h 83% 0.0 mm 0 W/m2
22:57 15.3 °C 12.4 °C 1007.3 hPa NW 3.5 km/h 6.1 km/h 83% 0.0 mm 0 W/m2
23:02 15.1 °C 12.2 °C 1007.3 hPa NW 1.1 km/h 6.1 km/h 83% 0.0 mm 0 W/m2
23:07 15.0 °C 12.3 °C 1007.3 hPa Calm   6.1 km/h 84% 0.0 mm 0 W/m2
23:12 14.9 °C 12.4 °C 1007.3 hPa North 1.1 km/h 5.0 km/h 85% 0.0 mm 0 W/m2
23:17 14.8 °C 12.5 °C 1007.3 hPa North 1.1 km/h 3.5 km/h 86% 0.0 mm 0 W/m2
23:22 14.8 °C 12.5 °C 1007.3 hPa Calm   3.5 km/h 86% 0.0 mm 0 W/m2
23:27 14.9 °C 12.6 °C 1007.3 hPa NNW 2.6 km/h 5.0 km/h 86% 0.0 mm 0 W/m2
23:32 15.3 °C 13.2 °C 1007.3 hPa NNW 2.6 km/h 9.7 km/h 87% 0.0 mm 0 W/m2
23:37 15.5 °C 13.2 °C 1007.3 hPa NNW 3.5 km/h 9.7 km/h 86% 0.0 mm 0 W/m2
23:42 15.6 °C 13.3 °C 1007.3 hPa NW 3.5 km/h 8.7 km/h 86% 0.0 mm 0 W/m2
23:47 15.6 °C 13.1 °C 1007.3 hPa WNW 1.1 km/h 8.7 km/h 85% 0.0 mm 0 W/m2
23:52 15.6 °C 13.1 °C 1007.3 hPa WNW 2.6 km/h 8.7 km/h 85% 0.0 mm 0 W/m2
Northern Hawkes Bay. New Zealand Historic Data
Compliments of Weather Underground - 2 mb